sensor_id;sensor_type;location;lat;lon;timestamp;temperature;humidity
51825;DHT22;37879;52.986;6.282;2023-03-03T00:00:48;1.70;99.90
51825;DHT22;37879;52.986;6.282;2023-03-03T00:03:21;1.70;99.90
51825;DHT22;37879;52.986;6.282;2023-03-03T00:05:47;2.50;99.90
51825;DHT22;37879;52.986;6.282;2023-03-03T00:08:12;2.20;99.90
51825;DHT22;37879;52.986;6.282;2023-03-03T00:10:38;1.70;99.90
51825;DHT22;37879;52.986;6.282;2023-03-03T00:13:12;1.80;99.90
51825;DHT22;37879;52.986;6.282;2023-03-03T00:15:39;1.80;99.90
51825;DHT22;37879;52.986;6.282;2023-03-03T00:18:16;1.80;99.90
51825;DHT22;37879;52.986;6.282;2023-03-03T00:20:53;1.80;99.90
51825;DHT22;37879;52.986;6.282;2023-03-03T00:26:03;0.80;99.90
51825;DHT22;37879;52.986;6.282;2023-03-03T00:28:49;2.60;99.90
51825;DHT22;37879;52.986;6.282;2023-03-03T00:31:21;1.80;99.90
51825;DHT22;37879;52.986;6.282;2023-03-03T00:33:50;1.80;99.90
51825;DHT22;37879;52.986;6.282;2023-03-03T00:36:34;1.80;99.90
51825;DHT22;37879;52.986;6.282;2023-03-03T00:39:28;1.90;99.90
51825;DHT22;37879;52.986;6.282;2023-03-03T00:41:56;1.90;99.90
51825;DHT22;37879;52.986;6.282;2023-03-03T00:44:40;1.90;99.90
51825;DHT22;37879;52.986;6.282;2023-03-03T00:49:40;2.00;99.90
51825;DHT22;37879;52.986;6.282;2023-03-03T00:52:13;2.40;99.90
51825;DHT22;37879;52.986;6.282;2023-03-03T00:54:40;2.00;99.90
51825;DHT22;37879;52.986;6.282;2023-03-03T00:57:06;2.00;99.90
51825;DHT22;37879;52.986;6.282;2023-03-03T00:59:32;2.00;99.90
51825;DHT22;37879;52.986;6.282;2023-03-03T01:01:57;1.90;99.90
51825;DHT22;37879;52.986;6.282;2023-03-03T01:04:23;1.90;99.90
51825;DHT22;37879;52.986;6.282;2023-03-03T01:06:48;2.00;99.90
51825;DHT22;37879;52.986;6.282;2023-03-03T01:09:14;2.00;99.90
51825;DHT22;37879;52.986;6.282;2023-03-03T01:11:40;2.00;99.90
51825;DHT22;37879;52.986;6.282;2023-03-03T01:14:06;2.00;99.90
51825;DHT22;37879;52.986;6.282;2023-03-03T01:16:33;2.00;99.90
51825;DHT22;37879;52.986;6.282;2023-03-03T01:18:59;2.00;99.90
51825;DHT22;37879;52.986;6.282;2023-03-03T01:21:24;2.00;99.90
51825;DHT22;37879;52.986;6.282;2023-03-03T01:23:50;2.10;99.90
51825;DHT22;37879;52.986;6.282;2023-03-03T01:26:16;2.10;99.90
51825;DHT22;37879;52.986;6.282;2023-03-03T01:28:41;2.10;99.90
51825;DHT22;37879;52.986;6.282;2023-03-03T01:31:07;2.10;99.90
51825;DHT22;37879;52.986;6.282;2023-03-03T01:33:34;2.10;99.90
51825;DHT22;37879;52.986;6.282;2023-03-03T01:36:00;2.60;99.90
51825;DHT22;37879;52.986;6.282;2023-03-03T01:38:26;2.00;99.90
51825;DHT22;37879;52.986;6.282;2023-03-03T01:40:56;2.00;99.90
51825;DHT22;37879;52.986;6.282;2023-03-03T01:43:26;2.00;99.90
51825;DHT22;37879;52.986;6.282;2023-03-03T01:53:50;1.90;99.90
51825;DHT22;37879;52.986;6.282;2023-03-03T01:56:17;1.90;99.90
51825;DHT22;37879;52.986;6.282;2023-03-03T01:58:50;1.90;99.90
51825;DHT22;37879;52.986;6.282;2023-03-03T02:01:20;1.90;99.90
51825;DHT22;37879;52.986;6.282;2023-03-03T02:03:47;1.90;99.90
51825;DHT22;37879;52.986;6.282;2023-03-03T02:06:15;1.80;99.90
51825;DHT22;37879;52.986;6.282;2023-03-03T02:11:24;1.90;99.90
51825;DHT22;37879;52.986;6.282;2023-03-03T02:13:51;1.90;99.90
51825;DHT22;37879;52.986;6.282;2023-03-03T02:16:17;1.90;99.90
51825;DHT22;37879;52.986;6.282;2023-03-03T02:18:43;1.90;99.90
51825;DHT22;37879;52.986;6.282;2023-03-03T02:21:15;1.90;99.90
51825;DHT22;37879;52.986;6.282;2023-03-03T02:26:20;1.80;99.90
51825;DHT22;37879;52.986;6.282;2023-03-03T02:28:48;1.70;99.90
51825;DHT22;37879;52.986;6.282;2023-03-03T02:31:17;1.70;99.90
51825;DHT22;37879;52.986;6.282;2023-03-03T02:33:45;1.60;99.90
51825;DHT22;37879;52.986;6.282;2023-03-03T02:36:12;1.60;99.90
51825;DHT22;37879;52.986;6.282;2023-03-03T02:41:31;1.60;99.90
51825;DHT22;37879;52.986;6.282;2023-03-03T02:46:34;1.50;99.90
51825;DHT22;37879;52.986;6.282;2023-03-03T02:49:00;1.50;99.90
51825;DHT22;37879;52.986;6.282;2023-03-03T02:51:26;1.50;99.90
51825;DHT22;37879;52.986;6.282;2023-03-03T02:53:52;1.40;99.90
51825;DHT22;37879;52.986;6.282;2023-03-03T02:56:17;-0.10;99.90
51825;DHT22;37879;52.986;6.282;2023-03-03T02:58:43;1.30;99.90
51825;DHT22;37879;52.986;6.282;2023-03-03T03:01:09;1.20;99.90
51825;DHT22;37879;52.986;6.282;2023-03-03T03:03:34;1.20;99.90
51825;DHT22;37879;52.986;6.282;2023-03-03T03:06:00;1.20;99.90
51825;DHT22;37879;52.986;6.282;2023-03-03T03:08:26;1.20;99.90
51825;DHT22;37879;52.986;6.282;2023-03-03T03:10:51;1.20;99.90
51825;DHT22;37879;52.986;6.282;2023-03-03T03:13:17;1.20;99.90
51825;DHT22;37879;52.986;6.282;2023-03-03T03:15:45;1.20;99.90
51825;DHT22;37879;52.986;6.282;2023-03-03T03:18:11;1.10;99.90
51825;DHT22;37879;52.986;6.282;2023-03-03T03:20:37;0.90;99.90
51825;DHT22;37879;52.986;6.282;2023-03-03T03:23:05;0.80;99.90
51825;DHT22;37879;52.986;6.282;2023-03-03T03:25:30;0.80;99.90
51825;DHT22;37879;52.986;6.282;2023-03-03T03:27:56;0.80;99.90
51825;DHT22;37879;52.986;6.282;2023-03-03T03:30:22;0.80;99.90
51825;DHT22;37879;52.986;6.282;2023-03-03T03:32:47;0.80;99.90
51825;DHT22;37879;52.986;6.282;2023-03-03T03:35:13;0.80;99.90
51825;DHT22;37879;52.986;6.282;2023-03-03T03:37:39;0.80;99.90
51825;DHT22;37879;52.986;6.282;2023-03-03T03:40:05;0.80;99.90
51825;DHT22;37879;52.986;6.282;2023-03-03T03:42:31;0.70;99.90
51825;DHT22;37879;52.986;6.282;2023-03-03T03:44:57;0.70;99.90
51825;DHT22;37879;52.986;6.282;2023-03-03T03:47:22;0.70;99.90
51825;DHT22;37879;52.986;6.282;2023-03-03T03:49:48;0.60;99.90
51825;DHT22;37879;52.986;6.282;2023-03-03T03:52:14;0.60;99.90
51825;DHT22;37879;52.986;6.282;2023-03-03T03:54:40;0.60;99.90
51825;DHT22;37879;52.986;6.282;2023-03-03T03:57:06;0.50;99.90
51825;DHT22;37879;52.986;6.282;2023-03-03T03:59:32;0.50;99.90
51825;DHT22;37879;52.986;6.282;2023-03-03T04:01:58;0.50;99.90
51825;DHT22;37879;52.986;6.282;2023-03-03T04:04:24;0.40;99.90
51825;DHT22;37879;52.986;6.282;2023-03-03T04:06:49;0.40;99.90
51825;DHT22;37879;52.986;6.282;2023-03-03T04:09:15;0.30;99.90
51825;DHT22;37879;52.986;6.282;2023-03-03T04:11:41;0.30;99.90
51825;DHT22;37879;52.986;6.282;2023-03-03T04:14:06;0.20;99.90
51825;DHT22;37879;52.986;6.282;2023-03-03T04:16:32;0.20;99.90
51825;DHT22;37879;52.986;6.282;2023-03-03T04:18:58;1.20;99.90
51825;DHT22;37879;52.986;6.282;2023-03-03T04:21:24;0.10;99.90
51825;DHT22;37879;52.986;6.282;2023-03-03T04:23:50;-0.10;99.90
51825;DHT22;37879;52.986;6.282;2023-03-03T04:26:17;0.00;99.90
51825;DHT22;37879;52.986;6.282;2023-03-03T04:28:43;-0.10;99.90
51825;DHT22;37879;52.986;6.282;2023-03-03T04:31:09;-0.10;99.90
51825;DHT22;37879;52.986;6.282;2023-03-03T04:33:34;0.20;99.90
51825;DHT22;37879;52.986;6.282;2023-03-03T04:36:00;1.20;99.90
51825;DHT22;37879;52.986;6.282;2023-03-03T04:38:26;-0.20;99.90
51825;DHT22;37879;52.986;6.282;2023-03-03T04:40:52;-0.20;99.90
51825;DHT22;37879;52.986;6.282;2023-03-03T04:43:17;0.50;99.90
51825;DHT22;37879;52.986;6.282;2023-03-03T04:45:43;-0.30;99.90
51825;DHT22;37879;52.986;6.282;2023-03-03T04:48:09;-0.40;99.90
51825;DHT22;37879;52.986;6.282;2023-03-03T04:50:34;-0.40;99.90
51825;DHT22;37879;52.986;6.282;2023-03-03T04:53:00;-0.30;99.90
51825;DHT22;37879;52.986;6.282;2023-03-03T04:55:26;-0.50;99.90
51825;DHT22;37879;52.986;6.282;2023-03-03T04:57:52;-0.60;99.90
51825;DHT22;37879;52.986;6.282;2023-03-03T05:00:18;-0.60;99.90
51825;DHT22;37879;52.986;6.282;2023-03-03T05:02:43;-0.70;99.90
51825;DHT22;37879;52.986;6.282;2023-03-03T05:05:11;-0.70;99.90
51825;DHT22;37879;52.986;6.282;2023-03-03T05:07:38;-0.70;99.90
51825;DHT22;37879;52.986;6.282;2023-03-03T05:10:04;-0.80;99.90
51825;DHT22;37879;52.986;6.282;2023-03-03T05:12:30;-0.80;99.90
51825;DHT22;37879;52.986;6.282;2023-03-03T05:17:22;-1.00;99.90
51825;DHT22;37879;52.986;6.282;2023-03-03T05:19:47;-1.10;99.90
51825;DHT22;37879;52.986;6.282;2023-03-03T05:22:13;-1.10;99.90
51825;DHT22;37879;52.986;6.282;2023-03-03T05:24:39;-1.20;99.90
51825;DHT22;37879;52.986;6.282;2023-03-03T05:27:07;-1.10;99.90
51825;DHT22;37879;52.986;6.282;2023-03-03T05:29:33;-1.20;99.90
51825;DHT22;37879;52.986;6.282;2023-03-03T05:31:58;-1.20;99.90
51825;DHT22;37879;52.986;6.282;2023-03-03T05:34:24;-1.20;99.90
51825;DHT22;37879;52.986;6.282;2023-03-03T05:36:50;-1.20;99.90
51825;DHT22;37879;52.986;6.282;2023-03-03T05:39:16;1.00;99.90
51825;DHT22;37879;52.986;6.282;2023-03-03T05:41:41;-1.00;99.90
51825;DHT22;37879;52.986;6.282;2023-03-03T05:44:07;-1.00;99.90
51825;DHT22;37879;52.986;6.282;2023-03-03T05:46:33;-1.40;99.90
51825;DHT22;37879;52.986;6.282;2023-03-03T05:48:58;-1.30;99.90
51825;DHT22;37879;52.986;6.282;2023-03-03T05:51:24;-1.30;99.90
51825;DHT22;37879;52.986;6.282;2023-03-03T05:53:50;-1.50;99.90
51825;DHT22;37879;52.986;6.282;2023-03-03T05:56:16;-1.50;99.90
51825;DHT22;37879;52.986;6.282;2023-03-03T05:58:42;-1.50;99.90
51825;DHT22;37879;52.986;6.282;2023-03-03T06:01:08;-1.50;99.90
51825;DHT22;37879;52.986;6.282;2023-03-03T06:03:33;-1.50;99.90
51825;DHT22;37879;52.986;6.282;2023-03-03T06:05:59;-1.50;99.90
51825;DHT22;37879;52.986;6.282;2023-03-03T06:08:25;-1.40;99.90
51825;DHT22;37879;52.986;6.282;2023-03-03T06:10:50;-1.50;99.90
51825;DHT22;37879;52.986;6.282;2023-03-03T06:13:16;-1.70;99.90
51825;DHT22;37879;52.986;6.282;2023-03-03T06:15:42;-1.40;99.90
51825;DHT22;37879;52.986;6.282;2023-03-03T06:18:08;-1.30;99.90
51825;DHT22;37879;52.986;6.282;2023-03-03T06:20:34;-1.20;99.90
51825;DHT22;37879;52.986;6.282;2023-03-03T06:23:00;-1.10;99.90
51825;DHT22;37879;52.986;6.282;2023-03-03T06:25:26;-1.30;99.90
51825;DHT22;37879;52.986;6.282;2023-03-03T06:27:52;-1.40;99.90
51825;DHT22;37879;52.986;6.282;2023-03-03T06:30:18;-1.40;99.90
51825;DHT22;37879;52.986;6.282;2023-03-03T06:32:44;-1.50;99.90
51825;DHT22;37879;52.986;6.282;2023-03-03T06:35:10;-1.50;99.90
51825;DHT22;37879;52.986;6.282;2023-03-03T06:37:36;-1.50;99.90
51825;DHT22;37879;52.986;6.282;2023-03-03T06:40:02;-1.50;99.90
51825;DHT22;37879;52.986;6.282;2023-03-03T06:42:29;-1.50;99.90
51825;DHT22;37879;52.986;6.282;2023-03-03T06:44:54;-1.60;99.90
51825;DHT22;37879;52.986;6.282;2023-03-03T06:47:20;0.30;99.90
51825;DHT22;37879;52.986;6.282;2023-03-03T06:49:46;-1.60;99.90
51825;DHT22;37879;52.986;6.282;2023-03-03T06:52:15;-1.60;99.90
51825;DHT22;37879;52.986;6.282;2023-03-03T06:54:42;-1.50;99.90
51825;DHT22;37879;52.986;6.282;2023-03-03T06:57:19;-1.50;99.90
51825;DHT22;37879;52.986;6.282;2023-03-03T06:59:51;-1.50;99.90
51825;DHT22;37879;52.986;6.282;2023-03-03T07:02:17;-1.40;99.90
51825;DHT22;37879;52.986;6.282;2023-03-03T07:04:43;-1.40;99.90
51825;DHT22;37879;52.986;6.282;2023-03-03T07:09:38;-1.40;99.90
51825;DHT22;37879;52.986;6.282;2023-03-03T07:12:14;-1.40;99.90
51825;DHT22;37879;52.986;6.282;2023-03-03T07:14:47;-1.40;99.90
51825;DHT22;37879;52.986;6.282;2023-03-03T07:17:18;-1.40;99.90
51825;DHT22;37879;52.986;6.282;2023-03-03T07:19:45;-1.40;99.90
51825;DHT22;37879;52.986;6.282;2023-03-03T07:22:24;-1.40;99.90
51825;DHT22;37879;52.986;6.282;2023-03-03T07:24:58;-1.40;99.90
51825;DHT22;37879;52.986;6.282;2023-03-03T07:27:28;-1.40;99.90
51825;DHT22;37879;52.986;6.282;2023-03-03T07:32:45;-1.30;99.90
51825;DHT22;37879;52.986;6.282;2023-03-03T07:37:51;-0.20;99.90
51825;DHT22;37879;52.986;6.282;2023-03-03T07:42:57;-1.10;99.90
51825;DHT22;37879;52.986;6.282;2023-03-03T07:45:29;-1.00;99.90
51825;DHT22;37879;52.986;6.282;2023-03-03T07:48:30;-1.00;99.90
51825;DHT22;37879;52.986;6.282;2023-03-03T07:51:04;-1.00;99.90
51825;DHT22;37879;52.986;6.282;2023-03-03T07:53:33;0.00;99.90
51825;DHT22;37879;52.986;6.282;2023-03-03T07:56:01;-0.90;99.90
51825;DHT22;37879;52.986;6.282;2023-03-03T07:58:46;-0.80;99.90
51825;DHT22;37879;52.986;6.282;2023-03-03T08:01:34;-0.70;99.90
51825;DHT22;37879;52.986;6.282;2023-03-03T08:04:16;-0.70;99.90
51825;DHT22;37879;52.986;6.282;2023-03-03T08:17:43;-0.10;99.90
51825;DHT22;37879;52.986;6.282;2023-03-03T08:22:54;0.20;99.90
51825;DHT22;37879;52.986;6.282;2023-03-03T08:25:19;0.30;99.90
51825;DHT22;37879;52.986;6.282;2023-03-03T08:27:45;0.50;99.90
51825;DHT22;37879;52.986;6.282;2023-03-03T08:30:11;0.60;99.90
51825;DHT22;37879;52.986;6.282;2023-03-03T08:32:37;0.60;99.90
51825;DHT22;37879;52.986;6.282;2023-03-03T08:35:03;0.50;99.90
51825;DHT22;37879;52.986;6.282;2023-03-03T08:37:28;0.50;99.90
51825;DHT22;37879;52.986;6.282;2023-03-03T08:39:54;0.60;99.90
51825;DHT22;37879;52.986;6.282;2023-03-03T08:42:20;0.60;99.90
51825;DHT22;37879;52.986;6.282;2023-03-03T08:44:45;0.60;99.90
51825;DHT22;37879;52.986;6.282;2023-03-03T08:47:11;0.60;99.90
51825;DHT22;37879;52.986;6.282;2023-03-03T08:49:37;0.80;99.90
51825;DHT22;37879;52.986;6.282;2023-03-03T08:52:08;0.90;99.90
51825;DHT22;37879;52.986;6.282;2023-03-03T08:54:33;1.00;99.90
51825;DHT22;37879;52.986;6.282;2023-03-03T08:56:59;1.10;99.90
51825;DHT22;37879;52.986;6.282;2023-03-03T08:59:25;1.20;99.90
51825;DHT22;37879;52.986;6.282;2023-03-03T09:01:50;2.50;99.90
51825;DHT22;37879;52.986;6.282;2023-03-03T09:04:17;1.30;99.90
51825;DHT22;37879;52.986;6.282;2023-03-03T09:06:42;1.30;99.90
51825;DHT22;37879;52.986;6.282;2023-03-03T09:09:08;1.40;99.90
51825;DHT22;37879;52.986;6.282;2023-03-03T09:11:34;1.60;99.90
51825;DHT22;37879;52.986;6.282;2023-03-03T09:14:10;1.70;99.90
51825;DHT22;37879;52.986;6.282;2023-03-03T09:16:38;1.80;99.90
51825;DHT22;37879;52.986;6.282;2023-03-03T09:19:28;1.80;99.90
51825;DHT22;37879;52.986;6.282;2023-03-03T09:21:58;1.90;99.90
51825;DHT22;37879;52.986;6.282;2023-03-03T09:24:27;1.90;99.90
51825;DHT22;37879;52.986;6.282;2023-03-03T09:26:54;1.90;99.90
51825;DHT22;37879;52.986;6.282;2023-03-03T09:29:28;2.00;99.90
51825;DHT22;37879;52.986;6.282;2023-03-03T09:31:56;2.20;99.90
51825;DHT22;37879;52.986;6.282;2023-03-03T09:37:17;2.40;99.90
51825;DHT22;37879;52.986;6.282;2023-03-03T09:39:46;2.50;99.90
51825;DHT22;37879;52.986;6.282;2023-03-03T09:53:55;3.20;99.90
51825;DHT22;37879;52.986;6.282;2023-03-03T10:07:18;3.50;99.90
51825;DHT22;37879;52.986;6.282;2023-03-03T10:12:29;3.60;99.90
51825;DHT22;37879;52.986;6.282;2023-03-03T10:15:03;3.60;99.90
51825;DHT22;37879;52.986;6.282;2023-03-03T10:17:55;3.60;99.90
51825;DHT22;37879;52.986;6.282;2023-03-03T10:20:58;3.70;99.90
51825;DHT22;37879;52.986;6.282;2023-03-03T10:23:42;3.80;99.90
51825;DHT22;37879;52.986;6.282;2023-03-03T10:40:23;4.50;99.90
51825;DHT22;37879;52.986;6.282;2023-03-03T10:43:08;4.70;99.90
51825;DHT22;37879;52.986;6.282;2023-03-03T11:02:03;5.90;99.90
51825;DHT22;37879;52.986;6.282;2023-03-03T11:04:57;6.00;99.90
51825;DHT22;37879;52.986;6.282;2023-03-03T11:21:22;6.50;99.90
51825;DHT22;37879;52.986;6.282;2023-03-03T11:24:11;6.50;99.90
51825;DHT22;37879;52.986;6.282;2023-03-03T11:31:48;6.70;99.90
51825;DHT22;37879;52.986;6.282;2023-03-03T11:39:44;6.60;99.90
51825;DHT22;37879;52.986;6.282;2023-03-03T11:42:27;6.70;99.90
51825;DHT22;37879;52.986;6.282;2023-03-03T11:45:05;6.70;99.90
51825;DHT22;37879;52.986;6.282;2023-03-03T11:47:58;6.80;99.90
51825;DHT22;37879;52.986;6.282;2023-03-03T11:53:37;7.10;99.90
51825;DHT22;37879;52.986;6.282;2023-03-03T11:56:22;7.10;99.90
51825;DHT22;37879;52.986;6.282;2023-03-03T12:01:59;7.10;99.90
51825;DHT22;37879;52.986;6.282;2023-03-03T12:04:47;7.10;99.90
51825;DHT22;37879;52.986;6.282;2023-03-03T12:07:21;7.10;99.90
51825;DHT22;37879;52.986;6.282;2023-03-03T12:20:50;7.20;99.90
51825;DHT22;37879;52.986;6.282;2023-03-03T12:26:07;7.00;99.90
51825;DHT22;37879;52.986;6.282;2023-03-03T12:28:40;7.10;99.90
51825;DHT22;37879;52.986;6.282;2023-03-03T12:31:32;7.40;99.90
51825;DHT22;37879;52.986;6.282;2023-03-03T12:37:11;7.80;99.90
51825;DHT22;37879;52.986;6.282;2023-03-03T12:40:13;8.00;99.90
51825;DHT22;37879;52.986;6.282;2023-03-03T12:48:47;8.40;99.90
51825;DHT22;37879;52.986;6.282;2023-03-03T13:04:56;7.70;99.90
51825;DHT22;37879;52.986;6.282;2023-03-03T13:07:38;7.70;99.90
51825;DHT22;37879;52.986;6.282;2023-03-03T13:13:16;7.90;99.90
51825;DHT22;37879;52.986;6.282;2023-03-03T13:18:23;8.20;99.90
51825;DHT22;37879;52.986;6.282;2023-03-03T13:21:03;8.30;99.90
51825;DHT22;37879;52.986;6.282;2023-03-03T13:29:08;7.90;99.90
51825;DHT22;37879;52.986;6.282;2023-03-03T13:31:40;7.90;99.90
51825;DHT22;37879;52.986;6.282;2023-03-03T13:34:22;8.00;99.90
51825;DHT22;37879;52.986;6.282;2023-03-03T13:36:58;8.10;99.90
51825;DHT22;37879;52.986;6.282;2023-03-03T13:39:33;8.00;99.90
51825;DHT22;37879;52.986;6.282;2023-03-03T13:42:18;8.00;99.90
51825;DHT22;37879;52.986;6.282;2023-03-03T13:44:49;8.10;99.90
51825;DHT22;37879;52.986;6.282;2023-03-03T13:47:25;8.40;99.90
51825;DHT22;37879;52.986;6.282;2023-03-03T13:52:24;8.50;99.90
51825;DHT22;37879;52.986;6.282;2023-03-03T13:57:44;8.30;99.90
51825;DHT22;37879;52.986;6.282;2023-03-03T14:10:43;8.10;99.90
51825;DHT22;37879;52.986;6.282;2023-03-03T14:13:18;8.10;99.90
51825;DHT22;37879;52.986;6.282;2023-03-03T14:16:15;8.00;99.90
51825;DHT22;37879;52.986;6.282;2023-03-03T14:24:17;7.80;99.90
51825;DHT22;37879;52.986;6.282;2023-03-03T14:26:55;7.90;99.90
51825;DHT22;37879;52.986;6.282;2023-03-03T14:31:58;7.90;99.90
51825;DHT22;37879;52.986;6.282;2023-03-03T14:34:35;7.90;99.90
51825;DHT22;37879;52.986;6.282;2023-03-03T14:37:29;7.90;99.90
51825;DHT22;37879;52.986;6.282;2023-03-03T14:42:54;7.90;99.90
51825;DHT22;37879;52.986;6.282;2023-03-03T14:45:35;7.90;99.90
51825;DHT22;37879;52.986;6.282;2023-03-03T14:50:40;7.80;99.90
51825;DHT22;37879;52.986;6.282;2023-03-03T14:55:53;7.60;99.90
51825;DHT22;37879;52.986;6.282;2023-03-03T14:58:40;7.50;99.90
51825;DHT22;37879;52.986;6.282;2023-03-03T15:01:20;7.40;99.90
51825;DHT22;37879;52.986;6.282;2023-03-03T15:06:43;7.20;99.90
51825;DHT22;37879;52.986;6.282;2023-03-03T15:09:31;7.10;99.90
51825;DHT22;37879;52.986;6.282;2023-03-03T15:12:21;7.10;99.90
51825;DHT22;37879;52.986;6.282;2023-03-03T15:14:53;7.10;99.90
51825;DHT22;37879;52.986;6.282;2023-03-03T15:17:38;7.10;99.90
51825;DHT22;37879;52.986;6.282;2023-03-03T15:20:21;7.10;99.90
51825;DHT22;37879;52.986;6.282;2023-03-03T15:25:32;7.10;99.90
51825;DHT22;37879;52.986;6.282;2023-03-03T15:48:05;6.80;99.90
51825;DHT22;37879;52.986;6.282;2023-03-03T15:56:43;6.70;99.90
51825;DHT22;37879;52.986;6.282;2023-03-03T16:05:02;6.70;99.90
51825;DHT22;37879;52.986;6.282;2023-03-03T16:07:40;6.70;99.90
51825;DHT22;37879;52.986;6.282;2023-03-03T16:13:22;6.60;99.90
51825;DHT22;37879;52.986;6.282;2023-03-03T16:16:19;6.60;99.90
51825;DHT22;37879;52.986;6.282;2023-03-03T16:21:29;6.50;99.90
51825;DHT22;37879;52.986;6.282;2023-03-03T16:35:23;6.40;99.90
51825;DHT22;37879;52.986;6.282;2023-03-03T16:38:02;6.40;99.90
51825;DHT22;37879;52.986;6.282;2023-03-03T16:40:46;6.40;99.90
51825;DHT22;37879;52.986;6.282;2023-03-03T16:43:30;6.40;99.90
51825;DHT22;37879;52.986;6.282;2023-03-03T16:46:06;6.40;99.90
51825;DHT22;37879;52.986;6.282;2023-03-03T16:54:56;6.40;99.90
51825;DHT22;37879;52.986;6.282;2023-03-03T16:57:27;6.40;99.90
51825;DHT22;37879;52.986;6.282;2023-03-03T17:00:08;6.40;99.90
51825;DHT22;37879;52.986;6.282;2023-03-03T17:02:57;6.30;99.90
51825;DHT22;37879;52.986;6.282;2023-03-03T17:08:15;6.30;99.90
51825;DHT22;37879;52.986;6.282;2023-03-03T17:24:21;6.20;99.90
51825;DHT22;37879;52.986;6.282;2023-03-03T17:27:18;5.80;99.90
51825;DHT22;37879;52.986;6.282;2023-03-03T17:33:25;6.20;99.90
51825;DHT22;37879;52.986;6.282;2023-03-03T17:36:17;6.20;99.90
51825;DHT22;37879;52.986;6.282;2023-03-03T17:38:56;6.20;99.90
51825;DHT22;37879;52.986;6.282;2023-03-03T17:41:30;6.20;99.90
51825;DHT22;37879;52.986;6.282;2023-03-03T18:03:27;6.00;99.90
51825;DHT22;37879;52.986;6.282;2023-03-03T18:14:20;6.00;99.90
51825;DHT22;37879;52.986;6.282;2023-03-03T18:16:59;6.10;99.90
51825;DHT22;37879;52.986;6.282;2023-03-03T18:22:42;6.10;99.90
51825;DHT22;37879;52.986;6.282;2023-03-03T18:25:12;6.00;99.90
51825;DHT22;37879;52.986;6.282;2023-03-03T18:27:40;6.00;99.90
51825;DHT22;37879;52.986;6.282;2023-03-03T18:33:02;6.00;99.90
51825;DHT22;37879;52.986;6.282;2023-03-03T18:35:36;6.00;99.90
51825;DHT22;37879;52.986;6.282;2023-03-03T18:38:26;6.00;99.90
51825;DHT22;37879;52.986;6.282;2023-03-03T18:41:09;6.00;99.90
51825;DHT22;37879;52.986;6.282;2023-03-03T18:49:07;6.00;99.90
51825;DHT22;37879;52.986;6.282;2023-03-03T18:59:08;6.20;99.90
51825;DHT22;37879;52.986;6.282;2023-03-03T19:01:41;6.00;99.90
51825;DHT22;37879;52.986;6.282;2023-03-03T19:09:10;6.00;99.90
51825;DHT22;37879;52.986;6.282;2023-03-03T19:11:49;6.00;99.90
51825;DHT22;37879;52.986;6.282;2023-03-03T19:20:14;6.00;99.90
51825;DHT22;37879;52.986;6.282;2023-03-03T19:23:01;5.90;99.90
51825;DHT22;37879;52.986;6.282;2023-03-03T19:25:29;6.00;99.90
51825;DHT22;37879;52.986;6.282;2023-03-03T19:42:04;5.90;99.90
51825;DHT22;37879;52.986;6.282;2023-03-03T19:52:49;5.90;99.90
51825;DHT22;37879;52.986;6.282;2023-03-03T20:00:42;5.80;99.90
51825;DHT22;37879;52.986;6.282;2023-03-03T20:06:24;5.90;99.90
51825;DHT22;37879;52.986;6.282;2023-03-03T20:09:05;5.90;99.90
51825;DHT22;37879;52.986;6.282;2023-03-03T20:20:11;5.80;99.90
51825;DHT22;37879;52.986;6.282;2023-03-03T20:22:53;5.80;99.90
51825;DHT22;37879;52.986;6.282;2023-03-03T20:25:28;5.80;99.90
51825;DHT22;37879;52.986;6.282;2023-03-03T20:36:08;5.90;99.90
51825;DHT22;37879;52.986;6.282;2023-03-03T20:38:53;5.80;99.90
51825;DHT22;37879;52.986;6.282;2023-03-03T20:46:52;5.80;99.90
51825;DHT22;37879;52.986;6.282;2023-03-03T20:52:47;5.80;99.90
51825;DHT22;37879;52.986;6.282;2023-03-03T21:01:06;5.90;99.90
51825;DHT22;37879;52.986;6.282;2023-03-03T21:03:39;5.90;99.90
51825;DHT22;37879;52.986;6.282;2023-03-03T21:06:13;5.80;99.90
51825;DHT22;37879;52.986;6.282;2023-03-03T21:08:48;5.80;99.90
51825;DHT22;37879;52.986;6.282;2023-03-03T21:11:42;5.80;99.90
51825;DHT22;37879;52.986;6.282;2023-03-03T21:14:23;5.90;99.90
51825;DHT22;37879;52.986;6.282;2023-03-03T21:16:52;5.90;99.90
51825;DHT22;37879;52.986;6.282;2023-03-03T21:21:52;5.90;99.90
51825;DHT22;37879;52.986;6.282;2023-03-03T21:24:18;5.90;99.90
51825;DHT22;37879;52.986;6.282;2023-03-03T21:26:53;5.90;99.90
51825;DHT22;37879;52.986;6.282;2023-03-03T21:31:49;6.70;99.90
51825;DHT22;37879;52.986;6.282;2023-03-03T21:34:26;6.00;99.90
51825;DHT22;37879;52.986;6.282;2023-03-03T21:36:53;5.90;99.90
51825;DHT22;37879;52.986;6.282;2023-03-03T21:44:40;5.90;99.90
51825;DHT22;37879;52.986;6.282;2023-03-03T21:47:10;5.90;99.90
51825;DHT22;37879;52.986;6.282;2023-03-03T21:49:41;5.90;99.90
51825;DHT22;37879;52.986;6.282;2023-03-03T21:52:07;6.70;99.90
51825;DHT22;37879;52.986;6.282;2023-03-03T21:54:33;5.80;99.90
51825;DHT22;37879;52.986;6.282;2023-03-03T21:56:59;5.90;99.90
51825;DHT22;37879;52.986;6.282;2023-03-03T21:59:24;5.90;99.90
51825;DHT22;37879;52.986;6.282;2023-03-03T22:01:50;6.00;99.90
51825;DHT22;37879;52.986;6.282;2023-03-03T22:04:16;6.20;99.90
51825;DHT22;37879;52.986;6.282;2023-03-03T22:06:42;6.00;99.90
51825;DHT22;37879;52.986;6.282;2023-03-03T22:09:07;6.00;99.90
51825;DHT22;37879;52.986;6.282;2023-03-03T22:11:33;6.00;99.90
51825;DHT22;37879;52.986;6.282;2023-03-03T22:13:59;6.00;99.90
51825;DHT22;37879;52.986;6.282;2023-03-03T22:16:25;6.00;99.90
51825;DHT22;37879;52.986;6.282;2023-03-03T22:18:51;5.90;99.90
51825;DHT22;37879;52.986;6.282;2023-03-03T22:21:16;5.90;99.90
51825;DHT22;37879;52.986;6.282;2023-03-03T22:23:42;5.90;99.90
51825;DHT22;37879;52.986;6.282;2023-03-03T22:26:09;5.90;99.90
51825;DHT22;37879;52.986;6.282;2023-03-03T22:28:34;5.90;99.90
51825;DHT22;37879;52.986;6.282;2023-03-03T22:31:00;5.90;99.90
51825;DHT22;37879;52.986;6.282;2023-03-03T22:33:25;5.90;99.90
51825;DHT22;37879;52.986;6.282;2023-03-03T22:35:51;5.90;99.90
51825;DHT22;37879;52.986;6.282;2023-03-03T22:38:17;5.90;99.90
51825;DHT22;37879;52.986;6.282;2023-03-03T22:40:42;5.90;99.90
51825;DHT22;37879;52.986;6.282;2023-03-03T22:43:09;6.00;99.90
51825;DHT22;37879;52.986;6.282;2023-03-03T22:45:39;5.90;99.90
51825;DHT22;37879;52.986;6.282;2023-03-03T22:48:05;6.00;99.90
51825;DHT22;37879;52.986;6.282;2023-03-03T22:50:31;5.90;99.90
51825;DHT22;37879;52.986;6.282;2023-03-03T22:52:57;5.90;99.90
51825;DHT22;37879;52.986;6.282;2023-03-03T22:55:22;5.90;99.90
51825;DHT22;37879;52.986;6.282;2023-03-03T22:57:48;6.30;99.90
51825;DHT22;37879;52.986;6.282;2023-03-03T23:00:14;5.90;99.90
51825;DHT22;37879;52.986;6.282;2023-03-03T23:02:40;5.90;99.90
51825;DHT22;37879;52.986;6.282;2023-03-03T23:05:07;5.80;99.90
51825;DHT22;37879;52.986;6.282;2023-03-03T23:07:36;5.90;99.90
51825;DHT22;37879;52.986;6.282;2023-03-03T23:10:03;5.80;99.90
51825;DHT22;37879;52.986;6.282;2023-03-03T23:12:29;5.90;99.90
51825;DHT22;37879;52.986;6.282;2023-03-03T23:14:55;5.90;99.90